Time;durP1;ratioP1;P1;durP2;ratioP2;P2;SDS_P1;SDS_P2;PMS_P1;PMS_P2;Temp;Humidity;BMP_temperature;BMP_pressure;BME280_temperature;BME280_humidity;BME280_pressure;Samples;Min_cycle;Max_cycle;Signal;HPM_P1;HPM_P2
2022/07/29 00:00:44;;;;;;;11.27;5.38;;;18.30;99.90;;;;;;4671484;30;20458;-83
2022/07/29 00:03:13;;;;;;;9.38;3.92;;;18.30;99.90;;;;;;4671066;30;20328;-81
2022/07/29 00:05:40;;;;;;;9.57;5.50;;;18.20;99.90;;;;;;4670716;30;20434;-82
2022/07/29 00:08:07;;;;;;;10.30;5.15;;;18.20;99.90;;;;;;4670857;30;20264;-84
2022/07/29 00:10:34;;;;;;;10.70;5.55;;;18.10;99.90;;;;;;4672210;30;20556;-84
2022/07/29 00:13:00;;;;;;;10.23;4.65;;;18.00;99.90;;;;;;4676746;30;20046;-84
2022/07/29 00:15:26;;;;;;;10.65;5.15;;;18.00;99.90;;;;;;4673412;30;20058;-84
2022/07/29 00:17:52;;;;;;;9.60;4.65;;;18.00;99.90;;;;;;4675097;30;20084;-85
2022/07/29 00:20:17;;;;;;;9.85;4.88;;;18.00;99.90;;;;;;4671952;30;20068;-83
2022/07/29 00:22:43;;;;;;;9.93;5.15;;;18.10;99.90;;;;;;4669538;30;20045;-83
2022/07/29 00:25:09;;;;;;;9.27;5.45;;;14.70;99.90;;;;;;4667954;30;20057;-81
2022/07/29 00:27:36;;;;;;;10.50;5.45;;;17.90;99.90;;;;;;4668740;30;20112;-84
2022/07/29 00:30:03;;;;;;;10.27;4.72;;;17.80;99.90;;;;;;4668506;30;20383;-82
2022/07/29 00:32:29;;;;;;;12.07;5.82;;;17.90;99.90;;;;;;4668500;30;20539;-81
2022/07/29 00:37:39;;;;;;;8.90;4.93;;;17.80;99.90;;;;;;4668718;30;20108;-82
2022/07/29 00:40:06;;;;;;;13.73;5.80;;;17.80;99.90;;;;;;4668093;30;20038;-82
2022/07/29 00:42:42;;;;;;;10.73;4.97;;;17.80;99.90;;;;;;4668393;30;20030;-81
2022/07/29 00:45:08;;;;;;;10.75;4.88;;;17.80;99.90;;;;;;4668246;30;20081;-82
2022/07/29 00:47:34;;;;;;;10.48;4.88;;;17.70;99.90;;;;;;4667934;30;20097;-83
2022/07/29 00:50:00;;;;;;;11.07;4.93;;;17.70;99.90;;;;;;4666949;30;20475;-83
2022/07/29 00:52:26;;;;;;;8.75;4.50;;;17.60;99.90;;;;;;4668190;30;20042;-82
2022/07/29 00:54:52;;;;;;;9.20;4.50;;;17.50;99.90;;;;;;4668048;30;20125;-82
2022/07/29 00:57:18;;;;;;;8.65;4.78;;;17.50;99.90;;;;;;4667809;30;20041;-83
2022/07/29 00:59:44;;;;;;;9.30;5.43;;;17.40;99.90;;;;;;4668147;30;20535;-83
2022/07/29 01:02:10;;;;;;;10.95;5.25;;;17.40;99.90;;;;;;4666619;30;20061;-82
2022/07/29 01:04:36;;;;;;;8.48;5.15;;;17.40;99.90;;;;;;4668236;30;20038;-84
2022/07/29 01:07:02;;;;;;;9.82;5.85;;;17.30;99.90;;;;;;4668295;30;20097;-83
2022/07/29 01:09:30;;;;;;;12.70;5.03;;;17.30;99.90;;;;;;4666474;30;20133;-83
2022/07/29 01:11:57;;;;;;;8.82;4.65;;;17.30;99.90;;;;;;4667661;30;20239;-83
2022/07/29 01:14:23;;;;;;;8.52;4.47;;;17.20;99.90;;;;;;4668107;30;20060;-81
2022/07/29 01:16:56;;;;;;;13.40;5.22;;;17.10;99.90;;;;;;4668100;30;20155;-83
2022/07/29 01:19:31;;;;;;;12.57;6.10;;;17.10;99.90;;;;;;4668100;30;20530;-84
2022/07/29 01:22:23;;;;;;;10.13;5.00;;;17.10;99.90;;;;;;4668251;30;20454;-83
2022/07/29 01:25:12;;;;;;;7.88;4.43;;;17.10;99.90;;;;;;4668039;30;20331;-83
2022/07/29 01:27:53;;;;;;;10.55;5.15;;;17.00;99.90;;;;;;4668306;30;20081;-85
2022/07/29 01:30:22;;;;;;;10.02;5.70;;;17.10;99.90;;;;;;4668323;30;20120;-83
2022/07/29 01:32:53;;;;;;;10.70;5.00;;;17.10;99.90;;;;;;4667889;30;20136;-83
2022/07/29 01:35:24;;;;;;;14.32;4.95;;;17.20;99.90;;;;;;4667865;30;20026;-83
2022/07/29 01:38:19;;;;;;;8.93;4.80;;;17.10;99.90;;;;;;4668038;30;20044;-83
2022/07/29 01:40:51;;;;;;;9.82;4.97;;;17.10;99.90;;;;;;4613944;31;20084;-84
2022/07/29 01:43:21;;;;;;;8.98;4.47;;;17.00;99.90;;;;;;4614145;31;20048;-81
2022/07/29 01:45:48;;;;;;;10.30;5.15;;;17.10;99.90;;;;;;4614137;31;20051;-84
2022/07/29 01:48:27;;;;;;;10.02;4.97;;;17.00;99.90;;;;;;4614309;30;20071;-81
2022/07/29 01:51:05;;;;;;;9.48;4.82;;;16.90;99.90;;;;;;4613975;31;20209;-81
2022/07/29 01:53:37;;;;;;;11.05;5.82;;;16.90;99.90;;;;;;4613872;31;20039;-82
2022/07/29 01:56:04;;;;;;;9.27;5.10;;;16.90;99.90;;;;;;4600146;31;20044;-80
2022/07/29 01:58:32;;;;;;;8.15;4.53;;;16.80;99.90;;;;;;4613851;31;20067;-81
2022/07/29 02:00:59;;;;;;;10.93;5.13;;;16.80;99.90;;;;;;4613787;31;20389;-82
2022/07/29 02:03:26;;;;;;;9.35;4.32;;;16.70;99.90;;;;;;4613950;30;20111;-80
2022/07/29 02:05:55;;;;;;;9.48;4.65;;;16.70;99.90;;;;;;4613957;31;20544;-84
2022/07/29 02:08:23;;;;;;;9.05;4.82;;;16.70;99.90;;;;;;4616304;31;20036;-82
2022/07/29 02:10:49;;;;;;;8.73;4.43;;;16.60;99.90;;;;;;4617285;31;20274;-80
2022/07/29 02:13:17;;;;;;;11.65;5.28;;;16.50;99.90;;;;;;4616921;31;20040;-80
2022/07/29 02:15:46;;;;;;;12.23;4.53;;;16.50;99.90;;;;;;4617099;31;20126;-81
2022/07/29 02:18:16;;;;;;;7.97;4.90;;;16.50;99.90;;;;;;4652527;30;20034;-83
2022/07/29 02:20:48;;;;;;;8.55;4.55;;;16.40;99.90;;;;;;4669344;30;20113;-83
2022/07/29 02:23:19;;;;;;;13.48;5.15;;;16.40;99.90;;;;;;4669313;30;20050;-84
2022/07/29 02:25:52;;;;;;;9.57;4.65;;;16.40;99.90;;;;;;4670572;30;20339;-80
2022/07/29 02:28:20;;;;;;;9.68;5.03;;;16.40;99.90;;;;;;4669246;30;20054;-82
2022/07/29 02:30:47;;;;;;;10.93;5.18;;;16.40;99.90;;;;;;4670519;30;20120;-83
2022/07/29 02:33:15;;;;;;;9.38;4.45;;;16.40;99.90;;;;;;4669645;30;20050;-80
2022/07/29 02:35:43;;;;;;;12.27;4.95;;;16.40;99.90;;;;;;4670586;30;20291;-82
2022/07/29 02:41:05;;;;;;;12.82;5.47;;;16.30;99.90;;;;;;4671252;30;20132;-82
2022/07/29 02:43:34;;;;;;;8.57;4.65;;;16.30;99.90;;;;;;4669586;30;20045;-83
2022/07/29 02:46:02;;;;;;;10.48;5.15;;;16.00;99.90;;;;;;4670349;30;20038;-80
2022/07/29 02:48:37;;;;;;;9.70;5.22;;;16.20;99.90;;;;;;4670587;30;20499;-84
2022/07/29 02:51:19;;;;;;;10.35;5.60;;;16.20;99.90;;;;;;4670148;30;20058;-84
2022/07/29 02:53:48;;;;;;;11.85;5.75;;;16.20;99.90;;;;;;4668823;30;20046;-83
2022/07/29 02:56:18;;;;;;;10.25;5.35;;;16.50;99.90;;;;;;4670124;30;20231;-82
2022/07/29 02:58:53;;;;;;;10.10;5.00;;;16.20;99.90;;;;;;4668689;30;20058;-81
2022/07/29 03:01:30;;;;;;;10.25;5.63;;;16.20;99.90;;;;;;4670219;30;20045;-80
2022/07/29 03:03:56;;;;;;;9.48;4.57;;;16.10;99.90;;;;;;4668623;30;20038;-85
2022/07/29 03:06:25;;;;;;;11.63;5.10;;;16.20;99.90;;;;;;4668717;30;20065;-80
2022/07/29 03:08:52;;;;;;;10.82;5.20;;;14.50;99.90;;;;;;4668587;30;20049;-83
2022/07/29 03:11:18;;;;;;;9.35;4.78;;;16.20;99.90;;;;;;4670192;30;20057;-83
2022/07/29 03:13:45;;;;;;;9.23;4.97;;;16.20;99.90;;;;;;4670421;30;20540;-82
2022/07/29 03:16:12;;;;;;;10.27;5.07;;;16.20;99.90;;;;;;4670483;30;20141;-82
2022/07/29 03:18:38;;;;;;;10.30;4.90;;;16.10;99.90;;;;;;4667638;30;20166;-83
2022/07/29 03:21:05;;;;;;;10.23;5.43;;;16.00;99.90;;;;;;4670075;30;20042;-83
2022/07/29 03:23:31;;;;;;;9.52;4.50;;;16.10;99.90;;;;;;4670191;30;20038;-82
2022/07/29 03:25:57;;;;;;;10.95;5.28;;;16.00;99.90;;;;;;4670884;30;20118;-82
2022/07/29 03:28:23;;;;;;;10.65;5.30;;;16.00;99.90;;;;;;4673303;30;20090;-83
2022/07/29 03:30:49;;;;;;;9.48;5.07;;;16.00;99.90;;;;;;4674825;30;20133;-82
2022/07/29 03:33:15;;;;;;;9.85;4.88;;;15.90;99.90;;;;;;4671730;30;20046;-84
2022/07/29 03:35:41;;;;;;;11.63;4.97;;;16.10;99.90;;;;;;4672798;30;20033;-83
2022/07/29 03:38:07;;;;;;;10.65;5.45;;;15.90;99.90;;;;;;4672389;30;20042;-84
2022/07/29 03:40:53;;;;;;;11.80;6.07;;;16.00;99.90;;;;;;4668882;30;20121;-82
2022/07/29 03:43:20;;;;;;;10.23;5.28;;;15.90;99.90;;;;;;4670248;30;20038;-84
2022/07/29 03:45:49;;;;;;;11.93;5.75;;;15.90;99.90;;;;;;4668453;30;20545;-81
2022/07/29 03:48:19;;;;;;;10.30;5.63;;;15.90;99.90;;;;;;4669530;30;20065;-82
2022/07/29 03:50:45;;;;;;;9.65;4.65;;;15.90;99.90;;;;;;4668957;30;20329;-82
2022/07/29 03:53:12;;;;;;;12.70;4.80;;;15.90;99.90;;;;;;4669226;30;20648;-80
2022/07/29 03:55:42;;;;;;;9.90;4.75;;;15.90;99.90;;;;;;4667752;30;20486;-83
2022/07/29 03:58:10;;;;;;;10.10;5.43;;;16.00;99.90;;;;;;4667936;30;20103;-82
2022/07/29 04:00:37;;;;;;;11.75;4.70;;;16.00;99.90;;;;;;4669214;30;20068;-83
2022/07/29 04:03:04;;;;;;;10.70;5.03;;;15.90;99.90;;;;;;4668969;30;20041;-84
2022/07/29 04:05:30;;;;;;;9.77;5.10;;;16.00;99.90;;;;;;4668039;30;20054;-81
2022/07/29 04:07:56;;;;;;;9.95;5.20;;;15.90;99.90;;;;;;4669236;30;20463;-84
2022/07/29 04:10:25;;;;;;;10.30;5.65;;;16.00;99.90;;;;;;4669114;30;20648;-83
2022/07/29 04:12:51;;;;;;;9.82;4.72;;;16.00;99.90;;;;;;4668811;30;20074;-83
2022/07/29 04:15:17;;;;;;;8.10;4.57;;;16.00;99.90;;;;;;4668977;30;20122;-81
2022/07/29 04:17:42;;;;;;;10.68;4.75;;;16.00;99.90;;;;;;4669192;30;20117;-83
2022/07/29 04:20:09;;;;;;;13.55;5.18;;;16.00;99.90;;;;;;4668940;30;20049;-82
2022/07/29 04:22:35;;;;;;;10.68;4.95;;;16.00;99.90;;;;;;4668784;30;20034;-84
2022/07/29 04:25:01;;;;;;;14.57;5.38;;;16.00;99.90;;;;;;4668772;30;20108;-82
2022/07/29 04:27:27;;;;;;;10.45;5.22;;;16.00;99.90;;;;;;4668835;30;20100;-85
2022/07/29 04:29:53;;;;;;;10.57;5.07;;;16.00;99.90;;;;;;4667504;30;20137;-83
2022/07/29 04:32:18;;;;;;;11.48;4.85;;;16.00;99.90;;;;;;4668806;30;20563;-81
2022/07/29 04:34:46;;;;;;;12.88;6.03;;;16.00;99.90;;;;;;4668348;30;20058;-83
2022/07/29 04:37:12;;;;;;;8.43;4.50;;;16.10;99.90;;;;;;4667311;30;20046;-85
2022/07/29 04:39:38;;;;;;;8.00;4.40;;;16.10;99.90;;;;;;4667032;30;20042;-83
2022/07/29 04:42:04;;;;;;;9.40;5.32;;;16.20;99.90;;;;;;4668392;30;20042;-84
2022/07/29 04:44:30;;;;;;;10.63;5.32;;;16.20;99.90;;;;;;4666951;30;20034;-84
2022/07/29 04:46:57;;;;;;;9.32;4.50;;;16.40;99.90;;;;;;4666854;30;20046;-85
2022/07/29 04:49:23;;;;;;;9.50;5.10;;;16.40;99.90;;;;;;4668426;30;20507;-82
2022/07/29 04:51:49;;;;;;;7.82;4.60;;;16.40;99.90;;;;;;4666917;30;20124;-84
2022/07/29 04:54:15;;;;;;;11.07;5.40;;;16.50;99.90;;;;;;4668237;30;20042;-83
2022/07/29 04:56:41;;;;;;;11.25;5.50;;;16.60;99.90;;;;;;4668047;30;20052;-85
2022/07/29 04:59:07;;;;;;;11.93;5.13;;;16.60;99.90;;;;;;4666929;30;20155;-82
2022/07/29 05:01:33;;;;;;;9.48;4.80;;;16.80;99.90;;;;;;4668217;30;20085;-83
2022/07/29 05:03:59;;;;;;;10.63;4.50;;;16.90;99.90;;;;;;4666653;30;20030;-82
2022/07/29 05:06:24;;;;;;;8.10;4.00;;;17.00;99.90;;;;;;4668237;30;20049;-80
2022/07/29 05:08:50;;;;;;;9.55;4.53;;;17.10;99.90;;;;;;4668144;30;20041;-83
2022/07/29 05:11:16;;;;;;;10.18;5.05;;;17.20;99.90;;;;;;4668180;30;20362;-82
2022/07/29 05:13:42;;;;;;;7.47;3.90;;;17.30;99.90;;;;;;4667960;30;20404;-83
2022/07/29 05:16:08;;;;;;;8.25;4.50;;;17.40;99.90;;;;;;4667978;30;20430;-82
2022/07/29 05:18:34;;;;;;;9.77;5.30;;;17.40;99.90;;;;;;4666449;30;20038;-83
2022/07/29 05:21:00;;;;;;;12.40;5.13;;;17.60;99.90;;;;;;4668086;30;20053;-82
2022/07/29 05:23:26;;;;;;;14.27;6.63;;;17.70;99.90;;;;;;4668056;30;20069;-84
2022/07/29 05:25:52;;;;;;;23.65;9.68;;;17.80;99.90;;;;;;4667974;30;20602;-82
2022/07/29 05:28:18;;;;;;;36.55;14.63;;;17.80;99.90;;;;;;4668614;30;20043;-83
2022/07/29 05:30:44;;;;;;;24.48;10.88;;;17.90;99.90;;;;;;4668477;30;20530;-80
2022/07/29 05:33:10;;;;;;;19.63;10.23;;;18.00;99.90;;;;;;4668712;30;20039;-83
2022/07/29 05:35:37;;;;;;;13.77;6.78;;;18.10;99.90;;;;;;4666613;30;20553;-82
2022/07/29 05:38:03;;;;;;;14.38;6.47;;;17.50;99.90;;;;;;4667506;30;20260;-81
2022/07/29 05:40:29;;;;;;;11.07;6.50;;;18.30;99.90;;;;;;4668402;30;20042;-84
2022/07/29 05:42:55;;;;;;;11.60;6.07;;;18.40;99.90;;;;;;4670581;30;20116;-81
2022/07/29 05:45:21;;;;;;;12.25;6.10;;;18.60;99.90;;;;;;4671890;30;20038;-83
2022/07/29 05:47:47;;;;;;;10.40;5.75;;;18.60;99.90;;;;;;4670332;30;20068;-83
2022/07/29 05:50:13;;;;;;;12.10;6.20;;;16.20;99.90;;;;;;4671193;30;20120;-80
2022/07/29 05:52:39;;;;;;;10.30;6.03;;;18.70;99.90;;;;;;4671538;30;20247;-80
2022/07/29 05:55:05;;;;;;;13.55;6.90;;;18.90;99.90;;;;;;4671382;30;20057;-83
2022/07/29 05:57:34;;;;;;;10.07;6.07;;;19.00;99.90;;;;;;4671341;30;20530;-80
2022/07/29 06:00:00;;;;;;;13.68;6.65;;;19.20;99.90;;;;;;4670024;30;20550;-81
2022/07/29 06:02:26;;;;;;;12.52;6.40;;;19.00;99.90;;;;;;4671181;30;20177;-81
2022/07/29 06:04:52;;;;;;;12.50;5.70;;;19.20;99.90;;;;;;4671231;30;20034;-81
2022/07/29 06:07:18;;;;;;;10.65;5.82;;;19.30;99.90;;;;;;4669759;30;20293;-80
2022/07/29 06:09:43;;;;;;;12.80;6.68;;;19.40;99.90;;;;;;4669604;30;20557;-81
2022/07/29 06:12:09;;;;;;;12.60;7.25;;;19.50;99.90;;;;;;4669286;30;20053;-81
2022/07/29 06:14:37;;;;;;;11.43;5.63;;;19.60;99.90;;;;;;4670942;30;20042;-81
2022/07/29 06:17:04;;;;;;;9.85;5.93;;;19.70;99.90;;;;;;4670212;30;20519;-80
2022/07/29 06:19:30;;;;;;;12.75;6.97;;;19.90;99.90;;;;;;4670221;30;20045;-81
2022/07/29 06:21:56;;;;;;;11.70;6.63;;;20.00;99.90;;;;;;4668806;30;20113;-82
2022/07/29 06:24:21;;;;;;;14.02;7.10;;;20.20;99.90;;;;;;4670402;30;20045;-81
2022/07/29 06:26:50;;;;;;;13.82;7.05;;;20.30;99.90;;;;;;4670451;30;20030;-82
2022/07/29 06:29:15;;;;;;;15.90;6.95;;;20.40;99.60;;;;;;4670109;30;20403;-81
2022/07/29 06:31:41;;;;;;;11.55;7.10;;;20.50;99.40;;;;;;4670252;30;20152;-81
2022/07/29 06:34:07;;;;;;;11.77;6.57;;;20.70;99.30;;;;;;4669910;30;20507;-81
2022/07/29 06:36:37;;;;;;;13.07;7.07;;;20.80;99.00;;;;;;4670222;30;20345;-82
2022/07/29 06:39:08;;;;;;;11.07;6.57;;;20.80;98.80;;;;;;4670033;30;20041;-81
2022/07/29 06:41:35;;;;;;;12.90;6.40;;;21.00;98.60;;;;;;4668557;30;20069;-81
2022/07/29 06:44:01;;;;;;;12.38;7.65;;;21.10;98.50;;;;;;4668895;30;20041;-83
2022/07/29 06:46:27;;;;;;;13.40;6.55;;;21.20;97.80;;;;;;4670119;30;20050;-83
2022/07/29 06:48:54;;;;;;;12.75;7.13;;;21.30;97.90;;;;;;4671602;30;20072;-82
2022/07/29 06:51:20;;;;;;;11.80;6.20;;;21.30;98.00;;;;;;4671440;30;20058;-82
2022/07/29 06:53:46;;;;;;;13.65;6.57;;;21.40;98.00;;;;;;4669220;30;20043;-80
2022/07/29 06:56:13;;;;;;;11.00;6.50;;;21.60;97.80;;;;;;4672715;30;20046;-81
2022/07/29 06:58:40;;;;;;;13.13;6.93;;;21.70;97.70;;;;;;4669396;30;20152;-83
2022/07/29 07:01:06;;;;;;;14.70;6.18;;;21.50;97.10;;;;;;4669153;30;20665;-82
2022/07/29 07:03:32;;;;;;;11.35;6.43;;;21.90;96.80;;;;;;4670133;30;20246;-84
2022/07/29 07:05:58;;;;;;;12.23;7.10;;;22.00;96.50;;;;;;4669899;30;20082;-82
2022/07/29 07:08:25;;;;;;;8.52;4.72;;;;;;;;;;4670092;30;20107;-85
2022/07/29 07:10:52;;;;;;;9.43;5.13;;;22.30;95.90;;;;;;4669486;30;20046;-83
2022/07/29 07:13:18;;;;;;;10.32;5.78;;;22.50;95.90;;;;;;4668084;30;20034;-83
2022/07/29 07:15:45;;;;;;;11.38;6.60;;;22.50;95.70;;;;;;4669739;30;20515;-83
2022/07/29 07:18:11;;;;;;;11.77;6.13;;;22.50;95.50;;;;;;4670117;30;20235;-83
2022/07/29 07:20:37;;;;;;;11.90;6.05;;;22.60;95.60;;;;;;4669961;30;20046;-83
2022/07/29 07:23:04;;;;;;;10.52;5.75;;;22.80;94.80;;;;;;4669299;30;20038;-86
2022/07/29 07:25:30;;;;;;;9.52;5.65;;;22.80;94.70;;;;;;4668279;30;20061;-83
2022/07/29 07:27:56;;;;;;;8.57;4.82;;;22.90;94.90;;;;;;4668685;30;20042;-84
2022/07/29 07:30:21;;;;;;;9.82;5.20;;;23.00;94.40;;;;;;4669343;30;20034;-82
2022/07/29 07:32:47;;;;;;;10.93;4.97;;;23.20;94.70;;;;;;4669521;30;20081;-82
2022/07/29 07:35:13;;;;;;;11.73;5.28;;;23.30;93.80;;;;;;4668152;30;20034;-83
2022/07/29 07:37:40;;;;;;;10.48;5.53;;;23.30;93.70;;;;;;4668325;30;20109;-82
2022/07/29 07:40:07;;;;;;;9.38;4.88;;;23.40;93.70;;;;;;4669309;30;20045;-81
2022/07/29 07:42:33;;;;;;;9.45;5.35;;;23.50;93.20;;;;;;4669230;30;20042;-81
2022/07/29 07:44:59;;;;;;;10.65;5.38;;;23.70;93.00;;;;;;4669541;30;20026;-82
2022/07/29 07:47:24;;;;;;;11.50;5.43;;;23.70;92.80;;;;;;4667762;30;20065;-82
2022/07/29 07:49:51;;;;;;;9.25;5.07;;;23.70;92.80;;;;;;4669446;30;20050;-82
2022/07/29 07:52:19;;;;;;;9.73;4.85;;;24.00;92.70;;;;;;4669440;30;20405;-82
2022/07/29 07:54:45;;;;;;;8.15;4.50;;;24.20;92.20;;;;;;4669064;30;20117;-84
2022/07/29 07:57:12;;;;;;;10.52;4.68;;;24.40;91.80;;;;;;4668947;30;20133;-84
2022/07/29 07:59:38;;;;;;;8.63;4.90;;;24.40;91.90;;;;;;4668823;30;20046;-82
2022/07/29 08:02:05;;;;;;;9.98;5.22;;;24.50;91.60;;;;;;4668745;30;20038;-83
2022/07/29 08:04:31;;;;;;;11.10;5.22;;;24.50;91.40;;;;;;4666550;30;20038;-82
2022/07/29 08:06:58;;;;;;;8.30;4.30;;;25.00;90.60;;;;;;4667243;30;20131;-82
2022/07/29 08:09:26;;;;;;;7.35;4.07;;;24.90;91.00;;;;;;4668883;30;20046;-83
2022/07/29 08:11:52;;;;;;;9.27;4.88;;;25.00;90.50;;;;;;4668754;30;20042;-82
2022/07/29 08:14:18;;;;;;;8.77;4.78;;;24.90;90.50;;;;;;4668672;30;20392;-82
2022/07/29 08:16:44;;;;;;;6.93;4.38;;;25.10;90.20;;;;;;4667543;30;20049;-82
2022/07/29 08:19:10;;;;;;;9.10;3.80;;;25.30;89.40;;;;;;4668760;30;20026;-83
2022/07/29 08:21:36;;;;;;;8.77;4.72;;;25.50;88.60;;;;;;4667446;30;20389;-83
2022/07/29 08:26:46;;;;;;;10.57;4.40;;;25.90;87.10;;;;;;4668577;30;20048;-81
2022/07/29 08:29:12;;;;;;;9.02;4.55;;;25.80;85.90;;;;;;4668862;30;20039;-83
2022/07/29 08:31:38;;;;;;;6.53;3.47;;;25.90;85.80;;;;;;4668538;30;20539;-81
2022/07/29 08:34:05;;;;;;;8.65;4.57;;;26.20;85.20;;;;;;4668418;30;20046;-83
2022/07/29 08:36:31;;;;;;;7.82;4.35;;;26.40;83.10;;;;;;4667057;30;20042;-82
2022/07/29 08:38:58;;;;;;;7.78;4.38;;;26.40;83.70;;;;;;4668531;30;20048;-83
2022/07/29 08:41:24;;;;;;;8.15;4.07;;;26.70;82.90;;;;;;4668362;30;20041;-84
2022/07/29 08:43:50;;;;;;;7.45;4.40;;;26.90;82.70;;;;;;4668308;30;20038;-81
2022/07/29 08:46:16;;;;;;;8.25;4.22;;;26.90;81.50;;;;;;4668040;30;20042;-82
2022/07/29 08:48:42;;;;;;;8.05;4.43;;;27.10;81.60;;;;;;4668415;30;20030;-81
2022/07/29 08:51:14;;;;;;;8.60;4.82;;;26.30;80.40;;;;;;4665448;30;20149;-80
2022/07/29 08:53:43;;;;;;;10.77;4.57;;;27.10;80.30;;;;;;4666475;30;20034;-82
2022/07/29 08:56:13;;;;;;;10.63;4.53;;;27.50;80.50;;;;;;4667975;30;20057;-82
2022/07/29 08:58:40;;;;;;;9.32;5.18;;;27.40;80.20;;;;;;4666506;30;20050;-82
2022/07/29 09:01:07;;;;;;;9.52;4.95;;;27.50;79.40;;;;;;4667748;30;20038;-82
2022/07/29 09:03:35;;;;;;;10.27;4.80;;;27.60;79.60;;;;;;4667971;30;20034;-82
2022/07/29 09:06:03;;;;;;;9.38;4.82;;;27.60;79.20;;;;;;4668131;30;20071;-81
2022/07/29 09:08:31;;;;;;;10.63;5.00;;;27.80;78.60;;;;;;4667917;30;20049;-83
2022/07/29 09:10:58;;;;;;;10.15;4.72;;;27.90;77.70;;;;;;4667550;30;20435;-81
2022/07/29 09:13:24;;;;;;;8.70;4.75;;;28.00;77.40;;;;;;4666580;30;20420;-82
2022/07/29 09:15:50;;;;;;;9.07;5.35;;;;;;;;;;4667867;30;20100;-82
2022/07/29 09:18:38;;;;;;;8.98;4.15;;;28.10;75.00;;;;;;4667707;30;20573;-81
2022/07/29 09:24:00;;;;;;;9.73;5.10;;;28.60;74.80;;;;;;4668647;30;20523;-86
2022/07/29 09:26:33;;;;;;;9.48;4.60;;;28.30;74.70;;;;;;4668076;30;20039;-81
2022/07/29 09:28:59;;;;;;;;;;;28.70;74.90;;;;;;4668538;30;20049;-85
2022/07/29 09:31:37;;;;;;;8.23;4.03;;;25.60;71.40;;;;;;4672449;30;19924;-82
2022/07/29 09:34:04;;;;;;;10.93;4.82;;;29.00;72.40;;;;;;4668484;30;20432;-81
2022/07/29 09:36:30;;;;;;;10.48;5.50;;;29.10;72.00;;;;;;4675719;30;20042;-82
2022/07/29 09:39:00;;;;;;;10.95;5.43;;;29.00;72.40;;;;;;4669462;30;20065;-83
2022/07/29 09:41:27;;;;;;;8.52;4.70;;;29.10;72.70;;;;;;4681244;30;20046;-81
2022/07/29 09:44:05;;;;;;;9.07;4.90;;;29.30;72.60;;;;;;4679558;30;20073;-82
2022/07/29 09:46:35;;;;;;;8.48;4.53;;;30.00;72.10;;;;;;4679233;30;20050;-81
2022/07/29 09:49:17;;;;;;;8.32;4.45;;;29.80;71.00;;;;;;4679605;30;20036;-82
2022/07/29 09:52:03;;;;;;;9.35;4.60;;;30.00;70.80;;;;;;4673757;30;20050;-82
2022/07/29 09:54:34;;;;;;;10.38;5.53;;;29.80;71.60;;;;;;4672360;30;20360;-82
2022/07/29 09:57:15;;;;;;;8.48;5.03;;;29.30;70.80;;;;;;4669917;30;20042;-84
2022/07/29 09:59:59;;;;;;;7.75;4.15;;;29.70;70.10;;;;;;4670773;30;20057;-83
2022/07/29 10:02:30;;;;;;;9.23;5.32;;;30.00;69.60;;;;;;4670703;30;20046;-81
2022/07/29 10:05:37;;;;;;;8.73;4.68;;;29.90;68.00;;;;;;4673821;30;20410;-84
2022/07/29 10:08:31;;;;;;;7.65;4.55;;;30.60;67.90;;;;;;4619651;31;20063;-84
2022/07/29 10:11:13;;;;;;;9.15;4.93;;;30.20;67.70;;;;;;4619210;31;20326;-83
2022/07/29 10:13:43;;;;;;;8.15;4.80;;;30.40;66.00;;;;;;4619817;31;20047;-82
2022/07/29 10:16:09;;;;;;;8.93;5.07;;;30.50;66.00;;;;;;4602571;31;20685;-83
2022/07/29 10:18:38;;;;;;;9.32;5.40;;;29.80;65.80;;;;;;4617638;31;20071;-83
2022/07/29 10:21:03;;;;;;;8.35;4.57;;;30.70;66.10;;;;;;4615694;31;20265;-82
2022/07/29 10:23:50;;;;;;;9.60;5.35;;;30.80;65.30;;;;;;4615242;31;20106;-84
2022/07/29 10:26:23;;;;;;;8.52;4.90;;;30.90;65.00;;;;;;4615826;31;20055;-83
2022/07/29 10:28:59;;;;;;;;;;;;;;;;;;;;;
2022/07/29 10:31:36;;;;;;;9.02;4.93;;;31.40;63.70;;;;;;4619025;31;20055;-81
2022/07/29 10:34:21;;;;;;;8.45;4.32;;;31.20;61.50;;;;;;4617348;30;20098;-81
2022/07/29 10:37:52;;;;;;;9.95;5.03;;;31.40;59.20;;;;;;4618186;30;20147;-80
2022/07/29 10:43:35;;;;;;;7.18;4.45;;;31.90;59.90;;;;;;4584877;31;20055;-82
2022/07/29 10:46:03;;;;;;;6.90;3.35;;;31.10;57.50;;;;;;4634552;30;20284;-82
2022/07/29 10:48:34;;;;;;;9.10;4.13;;;31.40;57.10;;;;;;4634576;30;20046;-82
2022/07/29 10:51:15;;;;;;;7.80;4.22;;;30.90;56.40;;;;;;4620521;30;20341;-83
2022/07/29 10:53:55;;;;;;;7.65;4.20;;;32.00;57.10;;;;;;4634326;30;20099;-82
2022/07/29 10:56:27;;;;;;;8.20;3.97;;;31.80;56.60;;;;;;4619742;30;20046;-81
2022/07/29 10:59:20;;;;;;;9.93;3.95;;;32.00;56.80;;;;;;4633883;30;20611;-81
2022/07/29 11:01:50;;;;;;;8.40;4.43;;;32.30;55.70;;;;;;4634024;30;20241;-81
2022/07/29 11:04:35;;;;;;;8.95;4.35;;;32.60;55.00;;;;;;4633563;30;20063;-82
2022/07/29 11:07:16;;;;;;;8.70;4.30;;;32.80;53.90;;;;;;4633677;30;20546;-81
2022/07/29 11:10:04;;;;;;;7.72;3.97;;;36.10;57.00;;;;;;4619901;30;20090;-83
2022/07/29 11:12:38;;;;;;;6.28;3.67;;;33.00;54.70;;;;;;4633672;30;20724;-83
2022/07/29 11:15:21;;;;;;;9.30;3.95;;;32.90;53.80;;;;;;4670231;30;20066;-81
2022/07/29 11:17:53;;;;;;;9.35;4.80;;;33.10;53.50;;;;;;4668780;30;20379;-83
2022/07/29 11:20:48;;;;;;;7.68;3.97;;;33.30;54.00;;;;;;4669073;30;20049;-83
2022/07/29 11:23:35;;;;;;;10.65;4.07;;;34.40;53.10;;;;;;4668813;30;20038;-81
2022/07/29 11:26:21;;;;;;;11.48;5.30;;;34.00;52.80;;;;;;4668627;30;20242;-81
2022/07/29 11:28:58;;;;;;;8.32;4.50;;;34.10;51.50;;;;;;4671227;30;20045;-82
2022/07/29 11:32:17;;;;;;;;;;;;;;;;;;;;;
2022/07/29 11:35:06;;;;;;;7.45;4.40;;;34.50;51.60;;;;;;4669333;30;20050;-82
2022/07/29 11:37:37;;;;;;;8.57;4.57;;;35.40;52.20;;;;;;4670141;30;20034;-83
2022/07/29 11:40:19;;;;;;;8.45;4.65;;;34.80;51.70;;;;;;4669270;30;20131;-82
2022/07/29 11:42:46;;;;;;;9.30;4.55;;;34.80;49.20;;;;;;4668675;30;20502;-83
2022/07/29 11:45:28;;;;;;;8.50;4.60;;;34.80;50.40;;;;;;4669592;30;20073;-81
2022/07/29 11:47:59;;;;;;;8.00;4.50;;;34.70;50.70;;;;;;4669431;30;20479;-82
2022/07/29 11:50:48;;;;;;;7.78;4.07;;;34.90;51.40;;;;;;4668126;30;20125;-81
2022/07/29 11:53:18;;;;;;;7.53;3.70;;;37.00;51.50;;;;;;4667924;30;20363;-84
2022/07/29 11:55:44;;;;;;;9.20;4.10;;;36.00;47.40;;;;;;4668353;30;20369;-83
2022/07/29 11:58:10;;;;;;;8.20;3.63;;;36.00;48.30;;;;;;4669829;30;20049;-82
2022/07/29 12:00:39;;;;;;;6.60;3.03;;;36.10;45.80;;;;;;4669330;30;20145;-82
2022/07/29 12:03:10;;;;;;;5.72;2.90;;;36.10;45.70;;;;;;4667943;30;20050;-83
2022/07/29 12:05:48;;;;;;;6.43;2.77;;;36.40;44.20;;;;;;4668095;30;20461;-83
2022/07/29 12:08:21;;;;;;;6.43;2.80;;;36.40;43.80;;;;;;4669274;30;20121;-83
2022/07/29 12:10:48;;;;;;;7.43;3.22;;;36.90;43.90;;;;;;4667852;30;20427;-82
2022/07/29 12:13:17;;;;;;;5.15;2.58;;;36.40;42.80;;;;;;4667398;30;20606;-82
2022/07/29 12:15:52;;;;;;;5.40;2.95;;;37.20;43.20;;;;;;4668847;30;20538;-83
2022/07/29 12:18:22;;;;;;;5.60;2.83;;;37.20;43.10;;;;;;4669586;30;20042;-81
2022/07/29 12:20:56;;;;;;;5.45;2.67;;;37.60;43.00;;;;;;4668762;30;20286;-85
2022/07/29 12:23:27;;;;;;;6.10;3.03;;;38.40;42.30;;;;;;4667618;30;20850;-83
2022/07/29 12:25:53;;;;;;;6.32;3.10;;;38.20;42.20;;;;;;4667668;30;20123;-81
2022/07/29 12:28:21;;;;;;;7.90;4.15;;;38.30;42.00;;;;;;4668504;30;20034;-83
2022/07/29 12:30:49;;;;;;;6.10;3.08;;;38.80;42.00;;;;;;4666862;30;20582;-81
2022/07/29 12:33:19;;;;;;;6.22;2.92;;;39.90;40.80;;;;;;4667199;30;20112;-81
2022/07/29 12:35:48;;;;;;;6.45;3.17;;;39.80;40.10;;;;;;4667078;30;20125;-81
2022/07/29 12:38:15;;;;;;;6.28;3.42;;;38.80;40.20;;;;;;4668739;30;20034;-81
2022/07/29 12:40:41;;;;;;;7.57;3.58;;;38.70;41.00;;;;;;4667204;30;20046;-84
2022/07/29 12:43:17;;;;;;;5.85;3.40;;;36.70;40.10;;;;;;4668306;30;20323;-83
2022/07/29 12:45:51;;;;;;;8.05;3.78;;;39.00;41.90;;;;;;4666912;30;20070;-83
2022/07/29 12:48:36;;;;;;;6.32;3.40;;;38.80;40.70;;;;;;4668781;30;20034;-83
2022/07/29 12:51:03;;;;;;;6.45;3.40;;;35.60;38.10;;;;;;4668095;30;20077;-82
2022/07/29 12:53:30;;;;;;;6.22;3.20;;;38.40;40.30;;;;;;4668244;30;20042;-84
2022/07/29 12:56:19;;;;;;;;;;;;;;;;;;;;;
2022/07/29 12:58:45;;;;;;;5.75;3.38;;;39.60;40.40;;;;;;4668151;30;20056;-83
2022/07/29 13:01:17;;;;;;;6.88;3.33;;;40.00;41.20;;;;;;4667740;30;20046;-82
2022/07/29 13:03:49;;;;;;;5.60;3.08;;;39.50;39.90;;;;;;4666648;30;20038;-81
2022/07/29 13:06:31;;;;;;;5.60;2.92;;;39.90;40.00;;;;;;4666669;30;20133;-81
2022/07/29 13:09:05;;;;;;;6.57;3.85;;;39.60;38.40;;;;;;4668385;30;20049;-83
2022/07/29 13:11:33;;;;;;;6.18;3.33;;;40.10;39.50;;;;;;4665845;30;20149;-83
2022/07/29 13:13:59;;;;;;;7.05;3.35;;;39.20;39.20;;;;;;4668466;30;20037;-82